Time;durP1;ratioP1;P1;durP2;ratioP2;P2;SDS_P1;SDS_P2;PMS_P1;PMS_P2;Temp;Humidity;BMP_temperature;BMP_pressure;BME280_temperature;BME280_humidity;BME280_pressure;Samples;Min_cycle;Max_cycle;Signal;HPM_P1;HPM_P2
2021/09/30 00:09:50;;;;;;;33.17;27.45;;;22.60;54.30;;;;;;31215891;28;20135;-56
2021/09/30 02:58:28;;;;;;;21.67;18.33;;;22.40;55.10;;;;;;31187144;28;20064;-56
2021/09/30 03:13:33;;;;;;;21.30;18.00;;;22.40;55.10;;;;;;31183886;28;20066;-56
2021/09/30 03:28:36;;;;;;;21.80;16.92;;;22.40;55.10;;;;;;31173326;28;20047;-55
2021/09/30 03:43:39;;;;;;;19.40;15.77;;;22.40;55.20;;;;;;31206576;28;20054;-57
2021/09/30 04:14:01;;;;;;;18.65;16.00;;;22.40;55.20;;;;;;31134888;28;20102;-57
2021/09/30 04:29:03;;;;;;;17.77;14.60;;;22.40;55.10;;;;;;31205018;28;20050;-56
2021/09/30 04:44:05;;;;;;;16.40;14.05;;;22.80;54.80;;;;;;31230091;28;20130;-48
2021/09/30 04:59:07;;;;;;;15.55;13.70;;;23.10;54.60;;;;;;31237662;28;20046;-45
2021/09/30 05:14:10;;;;;;;15.00;12.77;;;23.00;55.00;;;;;;31181580;28;20062;-47
2021/09/30 05:29:12;;;;;;;23.27;13.10;;;22.90;55.20;;;;;;31234517;28;20050;-47
2021/09/30 05:44:16;;;;;;;43.80;14.68;;;22.50;50.50;;;;;;31254570;28;20065;-46
2021/09/30 05:59:21;;;;;;;39.03;14.82;;;22.40;50.50;;;;;;31254813;28;20088;-49
2021/09/30 06:14:29;;;;;;;27.17;14.80;;;22.40;51.30;;;;;;31262645;28;20061;-50
2021/09/30 06:29:31;;;;;;;38.72;14.65;;;22.40;52.30;;;;;;31276210;28;20056;-49
2021/09/30 06:44:33;;;;;;;22.10;13.05;;;22.50;52.60;;;;;;31274011;28;20058;-46
2021/09/30 06:59:35;;;;;;;24.60;12.55;;;23.00;53.90;;;;;;31272693;28;20061;-47
2021/09/30 07:14:38;;;;;;;25.33;12.40;;;23.00;52.70;;;;;;31270775;28;20045;-45
2021/09/30 07:29:41;;;;;;;19.75;11.20;;;23.00;53.20;;;;;;31269106;28;20096;-44
2021/09/30 07:44:43;;;;;;;21.33;10.70;;;22.90;53.20;;;;;;31266720;28;20054;-43
2021/09/30 07:59:45;;;;;;;21.98;10.85;;;22.90;53.50;;;;;;31265518;28;20053;-43
2021/09/30 08:14:47;;;;;;;19.20;10.23;;;22.70;54.00;;;;;;31263575;28;20061;-43
2021/09/30 08:29:49;;;;;;;21.77;9.95;;;22.60;54.40;;;;;;31261856;28;20109;-50
2021/09/30 08:44:52;;;;;;;18.05;9.95;;;22.50;54.50;;;;;;31259943;28;20089;-50
2021/09/30 09:00:08;;;;;;;14.80;9.70;;;22.50;54.90;;;;;;31258757;28;20139;-49
2021/09/30 09:15:11;;;;;;;14.23;8.48;;;22.40;55.00;;;;;;31257615;28;20050;-49
2021/09/30 09:30:35;;;;;;;17.10;8.45;;;22.40;54.80;;;;;;31256757;28;20105;-47
2021/09/30 09:45:47;;;;;;;13.73;8.18;;;22.60;54.70;;;;;;31258599;28;20146;-47
2021/09/30 10:01:02;;;;;;;12.50;7.38;;;23.00;55.00;;;;;;31279386;28;20098;-48
2021/09/30 10:16:05;;;;;;;12.50;7.20;;;23.00;54.30;;;;;;31277600;28;20053;-49
2021/09/30 10:31:39;;;;;;;12.35;7.13;;;23.00;54.30;;;;;;31276095;28;20101;-48
2021/09/30 10:46:42;;;;;;;10.23;6.60;;;22.90;54.10;;;;;;31269326;28;20081;-48
2021/09/30 11:01:47;;;;;;;10.70;6.45;;;22.80;54.20;;;;;;31265078;28;20042;-49
2021/09/30 11:16:53;;;;;;;8.85;6.00;;;22.70;54.50;;;;;;31264289;28;20042;-50
2021/09/30 11:32:13;;;;;;;9.45;5.88;;;22.60;54.90;;;;;;31275646;28;20057;-49
2021/09/30 11:47:20;;;;;;;9.18;6.38;;;22.50;55.20;;;;;;31221854;28;1210344;-48
2021/09/30 12:02:23;;;;;;;11.63;5.43;;;22.50;55.50;;;;;;31220592;28;20114;-50
2021/09/30 12:17:34;;;;;;;14.88;5.78;;;22.50;55.40;;;;;;30825844;28;10000685;-54
2021/09/30 12:32:39;;;;;;;11.32;6.30;;;22.50;55.30;;;;;;31235870;28;20117;-53
2021/09/30 12:47:42;;;;;;;30.20;6.57;;;22.40;54.10;;;;;;31159862;28;20108;-50
2021/09/30 13:02:49;;;;;;;10.73;5.32;;;22.50;53.10;;;;;;31215773;28;20141;-50
2021/09/30 13:18:00;;;;;;;13.18;5.82;;;22.50;52.70;;;;;;31244981;28;20038;-52
2021/09/30 13:33:03;;;;;;;18.13;6.55;;;22.50;52.80;;;;;;31218967;28;20046;-58
2021/09/30 13:48:12;;;;;;;19.55;5.68;;;22.50;54.50;;;;;;31237728;28;20057;-47
2021/09/30 14:03:14;;;;;;;10.47;4.70;;;22.60;51.80;;;;;;31252313;28;20101;-49
2021/09/30 14:18:16;;;;;;;13.10;5.00;;;22.60;51.90;;;;;;31250633;28;20042;-50
2021/09/30 14:33:18;;;;;;;20.27;5.28;;;22.50;55.70;;;;;;31219610;28;20094;-52
2021/09/30 14:48:20;;;;;;;29.60;8.52;;;21.90;47.80;;;;;;31200228;28;20105;-50
2021/09/30 15:03:23;;;;;;;12.13;5.03;;;22.20;51.00;;;;;;31145193;28;20050;-49
2021/09/30 15:18:49;;;;;;;20.35;6.72;;;22.40;49.10;;;;;;31144581;28;20043;-54
2021/09/30 15:33:50;;;;;;;18.00;11.32;;;22.40;49.80;;;;;;31186365;28;20042;-57
2021/09/30 15:48:52;;;;;;;31.52;15.68;;;22.50;48.70;;;;;;30870636;28;9999962;-49
2021/09/30 16:03:54;;;;;;;21.63;13.30;;;22.50;51.10;;;;;;31209186;28;20064;-55
2021/09/30 16:18:56;;;;;;;18.38;11.45;;;22.50;49.50;;;;;;31197499;28;20117;-56
2021/09/30 16:33:59;;;;;;;23.55;13.48;;;22.40;49.60;;;;;;31211263;28;20038;-52
2021/09/30 16:49:01;;;;;;;26.58;13.02;;;22.40;52.20;;;;;;31240953;28;20062;-53
2021/09/30 17:04:03;;;;;;;24.67;12.38;;;22.50;53.30;;;;;;31209679;28;20045;-51
2021/09/30 17:19:06;;;;;;;27.75;12.82;;;22.50;53.30;;;;;;31242600;28;20051;-50
2021/09/30 17:34:09;;;;;;;24.00;11.07;;;22.50;54.00;;;;;;31172853;28;20046;-59
2021/09/30 17:49:12;;;;;;;28.40;10.77;;;22.60;54.30;;;;;;31184475;28;20061;-58
2021/09/30 18:04:14;;;;;;;18.65;10.30;;;22.60;54.20;;;;;;31192554;28;20046;-51
2021/09/30 18:19:18;;;;;;;22.23;10.20;;;22.60;54.20;;;;;;31199529;28;20502;-44
2021/09/30 18:34:23;;;;;;;14.35;9.18;;;22.60;54.30;;;;;;31154517;28;20073;-46
2021/09/30 18:49:26;;;;;;;14.90;9.13;;;22.50;54.30;;;;;;31177588;28;20054;-48
2021/09/30 19:04:28;;;;;;;12.82;8.95;;;22.50;54.50;;;;;;31169090;28;20050;-52
2021/09/30 19:19:32;;;;;;;13.35;8.13;;;22.50;54.70;;;;;;31141653;28;20099;-48
2021/09/30 19:34:36;;;;;;;11.65;8.27;;;22.50;54.20;;;;;;31141719;28;20046;-49
2021/09/30 19:49:38;;;;;;;10.23;7.53;;;22.50;54.40;;;;;;31207312;28;20054;-51
2021/09/30 20:04:40;;;;;;;10.15;7.53;;;22.50;54.20;;;;;;31244120;28;20134;-49
2021/09/30 20:19:42;;;;;;;10.50;6.85;;;22.50;54.40;;;;;;31209680;28;20553;-44
2021/09/30 20:34:45;;;;;;;10.23;7.00;;;22.50;54.30;;;;;;31234776;28;20045;-56
2021/09/30 20:49:47;;;;;;;11.30;7.25;;;22.50;54.60;;;;;;31182470;28;20059;-51
2021/09/30 21:04:49;;;;;;;9.80;6.85;;;22.50;54.60;;;;;;30813392;28;10000000;-50
2021/09/30 21:19:51;;;;;;;9.30;6.43;;;22.50;54.70;;;;;;31160998;28;20066;-45
2021/09/30 21:34:53;;;;;;;9.10;5.90;;;22.50;54.90;;;;;;31145613;28;20045;-49
2021/09/30 21:49:55;;;;;;;9.60;5.95;;;22.50;54.90;;;;;;31164668;28;20069;-49
2021/09/30 22:04:57;;;;;;;8.20;6.25;;;22.50;54.90;;;;;;31264821;28;20442;-47
2021/09/30 22:19:59;;;;;;;8.48;5.18;;;22.50;55.00;;;;;;31266519;28;20085;-45
2021/09/30 22:35:02;;;;;;;6.72;5.40;;;22.40;55.00;;;;;;31149307;28;20070;-48
2021/09/30 22:50:06;;;;;;;6.35;5.13;;;22.60;55.10;;;;;;31192807;28;20062;-44
2021/09/30 23:05:09;;;;;;;6.35;4.85;;;23.10;54.70;;;;;;31196926;28;20077;-48
2021/09/30 23:20:12;;;;;;;6.60;4.65;;;23.10;55.30;;;;;;31227224;28;20045;-52
2021/09/30 23:35:14;;;;;;;6.78;4.00;;;23.00;55.80;;;;;;31161972;28;20138;-57
2021/09/30 23:50:16;;;;;;;5.30;3.88;;;22.90;55.80;;;;;;31243872;28;20066;-47
